createdAt,value
2023-02-27T00:04:20.838Z,10.90
2023-02-27T00:09:24.587Z,13.60
2023-02-27T00:14:26.524Z,16.40
2023-02-27T00:19:28.483Z,16.70
2023-02-27T00:24:30.433Z,16.80
2023-02-27T00:30:32.177Z,8.80
2023-02-27T00:36:01.834Z,7.40
2023-02-27T00:41:04.030Z,5.30
2023-02-27T00:46:06.309Z,7.20
2023-02-27T00:52:07.991Z,7.10
2023-02-27T00:58:29.685Z,7.20
2023-02-27T01:04:38.010Z,6.70
2023-02-27T01:10:22.062Z,5.10
2023-02-27T01:16:24.083Z,6.60
2023-02-27T01:22:54.418Z,6.70
2023-02-27T01:28:32.038Z,5.50
2023-02-27T01:33:34.046Z,5.40
2023-02-27T01:39:35.770Z,5.30
2023-02-27T01:45:32.612Z,7.00
2023-02-27T01:51:02.442Z,5.90
2023-02-27T01:56:11.406Z,7.20
2023-02-27T02:01:14.337Z,8.30
2023-02-27T02:06:16.567Z,6.40
2023-02-27T02:12:18.934Z,6.80
2023-02-27T02:18:49.370Z,5.70
2023-02-27T02:25:20.557Z,6.90
2023-02-27T02:30:57.850Z,6.00
2023-02-27T02:41:26.019Z,6.70
2023-02-27T02:46:40.093Z,5.90
2023-02-27T02:51:51.623Z,5.90
2023-02-27T02:57:05.125Z,5.80
2023-02-27T03:03:07.761Z,6.40
2023-02-27T03:09:29.567Z,5.30
2023-02-27T03:14:56.586Z,4.70
2023-02-27T03:20:07.108Z,4.90
2023-02-27T03:25:12.362Z,4.90
2023-02-27T03:31:30.423Z,4.00
2023-02-27T03:37:18.493Z,4.60
2023-02-27T03:42:53.485Z,3.70
2023-02-27T03:48:09.169Z,5.00
2023-02-27T03:54:14.088Z,3.90
2023-02-27T03:59:37.847Z,4.80
2023-02-27T04:05:39.867Z,4.20
2023-02-27T04:12:02.968Z,5.10
2023-02-27T04:17:23.556Z,4.30
2023-02-27T04:22:39.163Z,4.50
2023-02-27T04:27:53.008Z,4.30
2023-02-27T04:33:43.570Z,4.60
2023-02-27T04:40:05.207Z,3.90
2023-02-27T04:46:26.925Z,4.90
2023-02-27T04:52:54.344Z,4.80
2023-02-27T04:59:18.675Z,4.10
2023-02-27T05:05:40.322Z,5.40
2023-02-27T05:11:15.556Z,5.60
2023-02-27T05:16:22.058Z,4.70
2023-02-27T05:21:48.748Z,5.90
2023-02-27T05:27:02.604Z,7.60
2023-02-27T05:32:19.007Z,6.10
2023-02-27T05:37:28.816Z,5.30
2023-02-27T05:42:38.449Z,4.80
2023-02-27T05:47:46.414Z,5.20
2023-02-27T05:52:50.105Z,4.80
2023-02-27T05:58:20.930Z,7.30
2023-02-27T06:03:23.500Z,7.90
2023-02-27T06:08:25.515Z,6.70
2023-02-27T06:13:27.684Z,6.70
2023-02-27T06:18:29.853Z,6.10
2023-02-27T06:23:31.851Z,6.20
2023-02-27T06:28:33.776Z,6.40
2023-02-27T06:33:35.728Z,4.50
2023-02-27T06:38:37.679Z,5.90
2023-02-27T06:43:39.636Z,6.80
2023-02-27T06:49:41.367Z,6.00
2023-02-27T06:56:03.007Z,6.50
2023-02-27T07:02:24.785Z,7.40
2023-02-27T07:07:46.696Z,7.00
2023-02-27T07:12:48.774Z,7.70
2023-02-27T07:17:51.117Z,7.10
2023-02-27T07:22:53.159Z,7.20
2023-02-27T07:27:55.359Z,7.20
2023-02-27T07:32:57.246Z,6.80
2023-02-27T07:37:59.192Z,7.60
2023-02-27T07:43:01.074Z,6.60
2023-02-27T07:48:03.024Z,5.80
2023-02-27T07:53:08.100Z,7.40
2023-02-27T07:58:10.266Z,6.20
2023-02-27T08:03:12.342Z,7.20
2023-02-27T08:08:14.306Z,7.50
2023-02-27T08:13:20.537Z,7.30
2023-02-27T08:18:25.870Z,7.70
2023-02-27T08:23:27.848Z,7.90
2023-02-27T08:28:50.198Z,8.10
2023-02-27T08:34:01.110Z,7.60
2023-02-27T08:39:20.442Z,6.30
2023-02-27T08:44:22.604Z,7.80
2023-02-27T08:49:29.671Z,8.70
2023-02-27T08:54:32.251Z,8.30
2023-02-27T08:59:34.307Z,9.70
2023-02-27T09:04:36.448Z,8.70
2023-02-27T09:09:38.268Z,9.60
2023-02-27T09:14:40.295Z,9.70
2023-02-27T09:19:42.276Z,9.90
2023-02-27T09:24:47.306Z,7.80
2023-02-27T09:29:57.462Z,8.50
2023-02-27T09:35:00.594Z,5.40
2023-02-27T09:40:14.338Z,4.60
2023-02-27T09:45:28.002Z,5.30
2023-02-27T09:50:52.660Z,4.20
2023-02-27T09:56:00.774Z,5.00
2023-02-27T10:01:46.047Z,6.00
2023-02-27T10:07:17.012Z,6.20
2023-02-27T10:12:40.090Z,6.80
2023-02-27T10:17:50.222Z,6.80
2023-02-27T10:22:55.700Z,8.20
2023-02-27T10:28:06.299Z,8.00
2023-02-27T10:33:11.062Z,7.90
2023-02-27T10:38:19.752Z,8.30
2023-02-27T10:43:22.096Z,7.80
2023-02-27T10:48:24.287Z,8.30
2023-02-27T10:53:28.056Z,8.30
2023-02-27T10:58:35.307Z,7.70
2023-02-27T11:03:41.477Z,6.80
2023-02-27T11:08:43.960Z,4.50
2023-02-27T11:13:46.012Z,4.20
2023-02-27T11:18:50.197Z,4.10
2023-02-27T11:23:59.192Z,3.70
2023-02-27T11:29:11.803Z,4.40
2023-02-27T11:34:22.283Z,5.60
2023-02-27T11:39:29.105Z,6.20
2023-02-27T11:44:49.830Z,5.10
2023-02-27T11:50:10.535Z,4.80
2023-02-27T11:55:16.118Z,4.50
2023-02-27T12:00:23.708Z,4.40
2023-02-27T12:10:47.623Z,4.70
2023-02-27T12:15:58.684Z,4.30
2023-02-27T12:21:07.380Z,5.10
2023-02-27T12:26:22.390Z,3.70
2023-02-27T12:31:36.035Z,5.00
2023-02-27T12:36:38.919Z,5.10
2023-02-27T12:42:25.540Z,5.30
2023-02-27T12:48:03.465Z,5.10
2023-02-27T12:53:20.604Z,4.60
2023-02-27T12:58:32.980Z,5.00
2023-02-27T13:03:37.803Z,5.50
2023-02-27T13:09:04.306Z,6.40
2023-02-27T13:14:36.885Z,5.60
2023-02-27T13:19:50.417Z,5.30
2023-02-27T13:24:57.559Z,5.50
2023-02-27T13:30:39.694Z,6.10
2023-02-27T13:35:57.834Z,7.30
2023-02-27T13:41:21.699Z,7.40
2023-02-27T13:46:23.848Z,8.40
2023-02-27T13:52:35.722Z,7.20
2023-02-27T13:59:30.688Z,6.60
2023-02-27T14:06:29.840Z,6.30
2023-02-27T14:13:34.217Z,7.60
2023-02-27T14:20:41.010Z,7.20
2023-02-27T14:27:44.357Z,7.50
2023-02-27T14:34:47.818Z,8.40
2023-02-27T14:42:09.422Z,8.30
2023-02-27T14:49:18.079Z,9.00
2023-02-27T14:56:28.216Z,8.20
2023-02-27T15:03:33.066Z,6.90
2023-02-27T15:10:39.630Z,8.40
2023-02-27T15:17:07.489Z,7.90
2023-02-27T15:23:55.618Z,8.00
2023-02-27T15:30:43.151Z,8.20
2023-02-27T15:37:18.315Z,8.00
2023-02-27T15:44:25.614Z,6.30
2023-02-27T15:51:20.065Z,8.10
2023-02-27T15:58:26.908Z,7.30
2023-02-27T16:05:12.362Z,7.00
2023-02-27T16:12:25.100Z,7.00
2023-02-27T16:19:34.365Z,7.00
2023-02-27T16:26:42.667Z,8.10
2023-02-27T16:33:46.764Z,8.40
2023-02-27T16:41:02.454Z,10.40
2023-02-27T16:48:06.028Z,14.10
2023-02-27T16:54:33.108Z,12.80
2023-02-27T17:01:45.319Z,12.80
2023-02-27T17:08:06.905Z,14.20
2023-02-27T17:15:10.251Z,14.70
2023-02-27T17:22:13.710Z,11.70
2023-02-27T17:29:05.348Z,11.70
2023-02-27T17:36:08.951Z,12.20
2023-02-27T17:42:55.054Z,11.00
2023-02-27T17:49:58.588Z,11.80
2023-02-27T17:57:02.165Z,10.10
2023-02-27T18:03:39.480Z,10.70
2023-02-27T18:10:48.568Z,8.50
2023-02-27T18:17:52.384Z,9.10
2023-02-27T18:25:02.868Z,8.20
2023-02-27T18:31:56.861Z,9.10
2023-02-27T18:39:09.654Z,9.40
2023-02-27T18:46:13.291Z,13.90
2023-02-27T18:53:17.849Z,10.80
2023-02-27T19:00:26.243Z,12.90
2023-02-27T19:07:30.929Z,10.00
2023-02-27T19:14:17.280Z,10.30
2023-02-27T19:21:22.303Z,10.40
2023-02-27T19:28:05.786Z,11.30
2023-02-27T19:34:33.907Z,11.60
2023-02-27T19:41:12.492Z,13.20
2023-02-27T19:47:11.251Z,15.30
2023-02-27T19:53:38.336Z,13.90
2023-02-27T20:00:41.511Z,18.60
2023-02-27T20:07:40.619Z,18.20
2023-02-27T20:14:05.634Z,20.30
2023-02-27T20:19:33.134Z,22.20
2023-02-27T20:26:16.059Z,22.50
2023-02-27T20:31:51.043Z,24.40
2023-02-27T20:37:22.561Z,23.20
2023-02-27T20:43:18.579Z,22.40
2023-02-27T20:50:08.272Z,23.50
2023-02-27T20:56:17.859Z,21.40
2023-02-27T21:01:54.196Z,23.20
2023-02-27T21:08:14.831Z,23.10
2023-02-27T21:14:21.786Z,28.60
2023-02-27T21:20:40.215Z,28.80
2023-02-27T21:27:08.508Z,28.00
2023-02-27T21:33:33.118Z,27.70
2023-02-27T21:40:11.635Z,28.20
2023-02-27T21:45:26.146Z,28.20
2023-02-27T21:51:43.978Z,23.50
2023-02-27T21:58:32.375Z,25.20
2023-02-27T22:05:24.465Z,23.20
2023-02-27T22:12:16.285Z,20.80
2023-02-27T22:18:33.976Z,19.50
2023-02-27T22:24:37.630Z,14.50
2023-02-27T22:31:35.853Z,14.50
2023-02-27T22:38:01.143Z,14.60
2023-02-27T22:44:38.347Z,13.60
2023-02-27T22:50:33.300Z,15.40
2023-02-27T23:04:58.620Z,13.10
2023-02-27T23:11:47.987Z,15.90
2023-02-27T23:18:40.499Z,16.60
2023-02-27T23:25:37.124Z,21.10
2023-02-27T23:32:14.552Z,20.00
2023-02-27T23:38:39.832Z,20.00
2023-02-27T23:45:43.320Z,20.00
2023-02-27T23:52:32.224Z,15.20
2023-02-27T23:59:09.449Z,13.10
